Terminal Aerodrome Forecast
Issued by NWS Sioux Falls, SD

Home | Current Version | Previous Version | Text Only | Print | Product List | Glossary On
Versions: 1 2 3 4 5 6 7 8 9 10 11 12 13 14
000
FTUS43 KFSD 160724 AAA
TAFFSD
TAF AMD
KFSD 160724Z 1607/1706 34012G16KT P6SM BKN015
     FM161200 32009KT P6SM SCT015
     FM161900 29005KT P6SM SKC
     FM162300 VRB04KT P6SM FEW120=

USA.gov is the U.S. government's official web portal to all federal, state and local government web resources and services.